Informes de METAR cercanos

 

LEXJ - Santander/Parayas, Spain
Distance from station: ESE 6km
Actualización: 24/07/2021 02:51
unable to load LEXJ data RC=
unable to load LEXJ data RC=
 
LEBB - Bilbao/Sondica, Spain
Distance from station: ESE 80km
Actualización: 24/07/2021 02:30
Muy nuboso
Muy nuboso
 Viento del varies
Viento: varies 4 km/h
Temperatura: 17°C
Rocío: 16°C
Humedad: 94%
Barómetro: 1014 hPa
Clouds: Muy nuboso
Visibility: 10 km
Cloud details: Muy nuboso 1737 m
2021/07/24 00:30 LEBB 240030Z AUTO VRB02KT 9999 BKN057 17/16 Q1014
 
LEBL - Barcelona Airpor, Spain
Distance from station: ESE 726km
Actualización: 24/07/2021 02:30
Despejado
Despejado
 Viento del NNO
Viento: NNO 4 km/h
Temperatura: 24°C
Rocío: 20°C
Humedad: 78%
Barómetro: 1009 hPa
Resumen: Despejado
Visibility: greater than 10 km
2021/07/24 00:30 LEBL 240030Z 34002KT CAVOK 24/20 Q1009 NOSIG
LEMD - Madrid/Barajas, Spain
Distance from station: S 325km
Actualización: 24/07/2021 02:30
Despejado
Despejado
 Viento del O
Viento: O 6 km/h
Temperatura: 21°C
Rocío: 6°C
Humedad: 38%
Barómetro: 1013 hPa
Resumen: Despejado
Visibility: greater than 10 km
2021/07/24 00:30 LEMD 240030Z 27003KT CAVOK 21/06 Q1013 NOSIG
 
LPPT - Lisbon/Portela, Portugal
Distance from station: SO 663km
Actualización: 24/07/2021 02:30
Despejado
Despejado
 Viento del NNO
Viento: NNO 15 km/h
Temperatura: 17°C
Rocío: 15°C
Humedad: 88%
Barómetro: 1016 hPa
Resumen: Despejado
Visibility: greater than 10 km
2021/07/24 00:30 LPPT 240030Z 33008KT CAVOK 17/15 Q1016
LECO - La Coruna/Alvedr, Spain
Distance from station: O 349km
Actualización: 24/07/2021 02:30
Despejado
Despejado
 Viento del S
Viento: S 9 km/h
Temperatura: 17°C
Rocío: 17°C
Humedad: 100%
Barómetro: 1014 hPa
Resumen: Despejado
Visibility: greater than 10 km
2021/07/24 00:30 LECO 240030Z AUTO 19005KT CAVOK 17/17 Q1014
 
LEST - Santiago/Labacol, Spain
Distance from station: O 358km
Actualización: 24/07/2021 02:30
Muy nuboso
Muy nuboso
 Viento del SO
Viento: SO 9 km/h
Temperatura: 15°C
Rocío: 14°C
Humedad: 94%
Barómetro: 1016 hPa
Clouds: Muy nuboso
Visibility: 10 km
Cloud details: Muy nuboso 152 m
2021/07/24 00:30 LEST 240030Z 22005KT 170V280 9999 BKN005 15/14 Q1016 NOSIG
EBBR - Brussels International Airport, Belgium
Distance from station: O 1339km
Actualización: 24/07/2021 02:20
Despejado
Despejado
 Viento del ENE
Viento: ENE 4 km/h
Temperatura: 16°C
Rocío: 14°C
Humedad: 88%
Barómetro: 1012 hPa
Resumen: Despejado
Visibility: greater than 10 km
2021/07/24 00:20 EBBR 240020Z 06002KT CAVOK 16/14 Q1012 NOSIG